sensor_id;sensor_type;location;lat;lon;timestamp;pressure;altitude;pressure_sealevel;temperature;humidity
84841;BME280;75088;53.114;18.040;2024-02-28T00:00:57;101363.30;;;6.43;83.90
84841;BME280;75088;53.114;18.040;2024-02-28T00:02:21;101360.80;;;6.42;83.77
84841;BME280;75088;53.114;18.040;2024-02-28T00:03:28;101355.67;;;6.42;83.82
84841;BME280;75088;53.114;18.040;2024-02-28T00:04:39;101353.03;;;6.42;83.80
84841;BME280;75088;53.114;18.040;2024-02-28T00:05:46;101358.85;;;6.41;83.68
84841;BME280;75088;53.114;18.040;2024-02-28T00:06:54;101358.67;;;6.42;83.82
84841;BME280;75088;53.114;18.040;2024-02-28T00:08:01;101359.71;;;6.41;83.86
84841;BME280;75088;53.114;18.040;2024-02-28T00:09:08;101361.48;;;6.40;84.03
84841;BME280;75088;53.114;18.040;2024-02-28T00:10:17;101355.46;;;6.40;83.87
84841;BME280;75088;53.114;18.040;2024-02-28T00:11:24;101357.59;;;6.40;83.87
84841;BME280;75088;53.114;18.040;2024-02-28T00:12:31;101356.15;;;6.38;83.93
84841;BME280;75088;53.114;18.040;2024-02-28T00:13:40;101349.95;;;6.38;83.98
84841;BME280;75088;53.114;18.040;2024-02-28T00:14:47;101350.66;;;6.38;83.82
84841;BME280;75088;53.114;18.040;2024-02-28T00:15:55;101351.20;;;6.38;83.85
84841;BME280;75088;53.114;18.040;2024-02-28T00:17:02;101348.89;;;6.37;83.85
84841;BME280;75088;53.114;18.040;2024-02-28T00:18:09;101350.29;;;6.36;83.86
84841;BME280;75088;53.114;18.040;2024-02-28T00:19:16;101352.22;;;6.36;84.05
84841;BME280;75088;53.114;18.040;2024-02-28T00:20:25;101349.74;;;6.35;83.90
84841;BME280;75088;53.114;18.040;2024-02-28T00:21:33;101353.45;;;6.35;84.08
84841;BME280;75088;53.114;18.040;2024-02-28T00:22:41;101354.51;;;6.36;84.04
84841;BME280;75088;53.114;18.040;2024-02-28T00:23:49;101358.90;;;6.35;84.02
84841;BME280;75088;53.114;18.040;2024-02-28T00:24:57;101362.05;;;6.33;84.09
84841;BME280;75088;53.114;18.040;2024-02-28T00:26:06;101359.73;;;6.32;84.24
84841;BME280;75088;53.114;18.040;2024-02-28T00:27:13;101362.54;;;6.31;84.15
84841;BME280;75088;53.114;18.040;2024-02-28T00:28:21;101364.98;;;6.30;84.00
84841;BME280;75088;53.114;18.040;2024-02-28T00:29:28;101368.16;;;6.29;84.19
84841;BME280;75088;53.114;18.040;2024-02-28T00:30:35;101369.05;;;6.29;84.11
84841;BME280;75088;53.114;18.040;2024-02-28T00:31:42;101369.92;;;6.29;84.17
84841;BME280;75088;53.114;18.040;2024-02-28T00:32:49;101368.17;;;6.30;84.12
84841;BME280;75088;53.114;18.040;2024-02-28T00:33:56;101369.92;;;6.30;84.28
84841;BME280;75088;53.114;18.040;2024-02-28T00:35:04;101367.64;;;6.29;84.18
84841;BME280;75088;53.114;18.040;2024-02-28T00:36:11;101365.70;;;6.29;84.19
84841;BME280;75088;53.114;18.040;2024-02-28T00:37:19;101374.16;;;6.28;84.35
84841;BME280;75088;53.114;18.040;2024-02-28T00:38:26;101375.92;;;6.28;84.31
84841;BME280;75088;53.114;18.040;2024-02-28T00:39:34;101370.45;;;6.27;84.24
84841;BME280;75088;53.114;18.040;2024-02-28T00:40:41;101370.45;;;6.27;84.06
84841;BME280;75088;53.114;18.040;2024-02-28T00:41:48;101370.80;;;6.27;84.22
84841;BME280;75088;53.114;18.040;2024-02-28T00:42:56;101373.62;;;6.27;84.31
84841;BME280;75088;53.114;18.040;2024-02-28T00:44:04;101372.19;;;6.26;84.46
84841;BME280;75088;53.114;18.040;2024-02-28T00:45:11;101374.63;;;6.24;84.23
84841;BME280;75088;53.114;18.040;2024-02-28T00:46:19;101373.73;;;6.23;84.46
84841;BME280;75088;53.114;18.040;2024-02-28T00:47:26;101374.96;;;6.23;84.25
84841;BME280;75088;53.114;18.040;2024-02-28T00:48:33;101372.12;;;6.22;84.23
84841;BME280;75088;53.114;18.040;2024-02-28T00:49:41;101374.43;;;6.23;84.20
84841;BME280;75088;53.114;18.040;2024-02-28T00:50:48;101372.67;;;6.24;84.33
84841;BME280;75088;53.114;18.040;2024-02-28T00:51:55;101373.38;;;6.24;84.42
84841;BME280;75088;53.114;18.040;2024-02-28T00:53:03;101375.69;;;6.24;84.34
84841;BME280;75088;53.114;18.040;2024-02-28T00:54:10;101376.58;;;6.25;84.33
84841;BME280;75088;53.114;18.040;2024-02-28T00:55:18;101376.05;;;6.25;84.24
84841;BME280;75088;53.114;18.040;2024-02-28T00:56:25;101374.80;;;6.24;84.37
84841;BME280;75088;53.114;18.040;2024-02-28T00:57:33;101373.91;;;6.24;84.31
84841;BME280;75088;53.114;18.040;2024-02-28T00:58:41;101371.80;;;6.24;84.19
84841;BME280;75088;53.114;18.040;2024-02-28T00:59:51;101367.20;;;6.23;84.45
84841;BME280;75088;53.114;18.040;2024-02-28T01:01:00;101371.45;;;6.24;84.34
84841;BME280;75088;53.114;18.040;2024-02-28T01:02:07;101371.80;;;6.24;84.29
84841;BME280;75088;53.114;18.040;2024-02-28T01:03:14;101371.81;;;6.25;84.09
84841;BME280;75088;53.114;18.040;2024-02-28T01:04:22;101372.69;;;6.24;84.59
84841;BME280;75088;53.114;18.040;2024-02-28T01:05:29;101371.63;;;6.24;84.29
84841;BME280;75088;53.114;18.040;2024-02-28T01:06:36;101370.05;;;6.25;84.35
84841;BME280;75088;53.114;18.040;2024-02-28T01:07:43;101369.01;;;6.25;84.07
84841;BME280;75088;53.114;18.040;2024-02-28T01:08:50;101367.41;;;6.25;84.53
84841;BME280;75088;53.114;18.040;2024-02-28T01:09:58;101361.41;;;6.25;84.12
84841;BME280;75088;53.114;18.040;2024-02-28T01:11:06;101361.75;;;6.24;84.06
84841;BME280;75088;53.114;18.040;2024-02-28T01:12:13;101357.87;;;6.24;84.41
84841;BME280;75088;53.114;18.040;2024-02-28T01:13:20;101355.92;;;6.24;84.26
84841;BME280;75088;53.114;18.040;2024-02-28T01:14:29;101352.73;;;6.23;84.14
84841;BME280;75088;53.114;18.040;2024-02-28T01:15:36;101353.96;;;6.23;84.08
84841;BME280;75088;53.114;18.040;2024-02-28T01:16:43;101351.48;;;6.23;84.25
84841;BME280;75088;53.114;18.040;2024-02-28T01:17:50;101351.84;;;6.23;84.34
84841;BME280;75088;53.114;18.040;2024-02-28T01:18:57;101350.25;;;6.23;84.24
84841;BME280;75088;53.114;18.040;2024-02-28T01:20:05;101349.70;;;6.21;84.32
84841;BME280;75088;53.114;18.040;2024-02-28T01:21:13;101346.15;;;6.20;83.98
84841;BME280;75088;53.114;18.040;2024-02-28T01:22:20;101340.66;;;6.20;84.24
84841;BME280;75088;53.114;18.040;2024-02-28T01:23:27;101341.73;;;6.20;84.19
84841;BME280;75088;53.114;18.040;2024-02-28T01:24:34;101341.01;;;6.19;84.02
84841;BME280;75088;53.114;18.040;2024-02-28T01:25:43;101345.42;;;6.20;84.13
84841;BME280;75088;53.114;18.040;2024-02-28T01:26:50;101349.31;;;6.20;84.24
84841;BME280;75088;53.114;18.040;2024-02-28T01:27:57;101346.48;;;6.20;84.05
84841;BME280;75088;53.114;18.040;2024-02-28T01:29:04;101349.29;;;6.18;84.15
84841;BME280;75088;53.114;18.040;2024-02-28T01:30:13;101351.92;;;6.18;83.95
84841;BME280;75088;53.114;18.040;2024-02-28T01:31:20;101356.86;;;6.18;84.45
84841;BME280;75088;53.114;18.040;2024-02-28T01:32:27;101360.55;;;6.17;84.16
84841;BME280;75088;53.114;18.040;2024-02-28T01:33:35;101365.14;;;6.17;84.31
84841;BME280;75088;53.114;18.040;2024-02-28T01:34:42;101364.27;;;6.18;84.04
84841;BME280;75088;53.114;18.040;2024-02-28T01:35:49;101367.09;;;6.17;84.14
84841;BME280;75088;53.114;18.040;2024-02-28T01:36:56;101368.51;;;6.18;84.14
84841;BME280;75088;53.114;18.040;2024-02-28T01:38:03;101364.77;;;6.16;83.98
84841;BME280;75088;53.114;18.040;2024-02-28T01:39:10;101366.38;;;6.17;84.47
84841;BME280;75088;53.114;18.040;2024-02-28T01:40:18;101368.14;;;6.17;84.32
84841;BME280;75088;53.114;18.040;2024-02-28T01:41:25;101369.55;;;6.17;84.36
84841;BME280;75088;53.114;18.040;2024-02-28T01:42:32;101371.32;;;6.17;84.13
84841;BME280;75088;53.114;18.040;2024-02-28T01:43:39;101373.61;;;6.17;84.22
84841;BME280;75088;53.114;18.040;2024-02-28T01:44:48;101373.96;;;6.17;84.17
84841;BME280;75088;53.114;18.040;2024-02-28T01:45:55;101372.89;;;6.17;84.19
84841;BME280;75088;53.114;18.040;2024-02-28T01:47:03;101377.30;;;6.16;84.09
84841;BME280;75088;53.114;18.040;2024-02-28T01:48:10;101375.69;;;6.15;84.20
84841;BME280;75088;53.114;18.040;2024-02-28T01:49:19;101376.38;;;6.14;83.94
84841;BME280;75088;53.114;18.040;2024-02-28T01:50:26;101379.36;;;6.13;84.07
84841;BME280;75088;53.114;18.040;2024-02-28T01:51:34;101378.11;;;6.13;84.18
84841;BME280;75088;53.114;18.040;2024-02-28T01:52:42;101378.27;;;6.12;84.05
84841;BME280;75088;53.114;18.040;2024-02-28T01:53:51;101380.02;;;6.10;83.93
84841;BME280;75088;53.114;18.040;2024-02-28T01:54:59;101379.12;;;6.09;83.98
84841;BME280;75088;53.114;18.040;2024-02-28T01:56:07;101379.08;;;6.07;84.19
84841;BME280;75088;53.114;18.040;2024-02-28T01:57:15;101380.86;;;6.09;84.03
84841;BME280;75088;53.114;18.040;2024-02-28T01:58:23;101375.73;;;6.08;84.20
84841;BME280;75088;53.114;18.040;2024-02-28T01:59:31;101379.09;;;6.08;84.03
84841;BME280;75088;53.114;18.040;2024-02-28T02:00:39;101380.33;;;6.09;84.21
84841;BME280;75088;53.114;18.040;2024-02-28T02:01:47;101382.13;;;6.10;84.28
84841;BME280;75088;53.114;18.040;2024-02-28T02:02:54;101378.96;;;6.11;84.30
84841;BME280;75088;53.114;18.040;2024-02-28T02:04:01;101378.62;;;6.11;84.24
84841;BME280;75088;53.114;18.040;2024-02-28T02:05:10;101375.98;;;6.11;84.10
84841;BME280;75088;53.114;18.040;2024-02-28T02:06:18;101375.79;;;6.11;84.40
84841;BME280;75088;53.114;18.040;2024-02-28T02:07:25;101380.20;;;6.11;84.07
84841;BME280;75088;53.114;18.040;2024-02-28T02:08:32;101379.48;;;6.11;84.28
84841;BME280;75088;53.114;18.040;2024-02-28T02:09:40;101379.50;;;6.11;84.23
84841;BME280;75088;53.114;18.040;2024-02-28T02:10:48;101380.55;;;6.11;84.10
84841;BME280;75088;53.114;18.040;2024-02-28T02:11:55;101378.45;;;6.11;84.19
84841;BME280;75088;53.114;18.040;2024-02-28T02:13:07;101377.75;;;6.12;84.14
84841;BME280;75088;53.114;18.040;2024-02-28T02:14:14;101377.20;;;6.11;84.36
84841;BME280;75088;53.114;18.040;2024-02-28T02:15:22;101380.03;;;6.11;84.18
84841;BME280;75088;53.114;18.040;2024-02-28T02:16:29;101378.61;;;6.11;84.29
84841;BME280;75088;53.114;18.040;2024-02-28T02:17:36;101374.54;;;6.10;84.28
84841;BME280;75088;53.114;18.040;2024-02-28T02:18:43;101372.75;;;6.09;84.29
84841;BME280;75088;53.114;18.040;2024-02-28T02:19:50;101372.73;;;6.07;84.05
84841;BME280;75088;53.114;18.040;2024-02-28T02:21:01;101373.41;;;6.06;84.23
84841;BME280;75088;53.114;18.040;2024-02-28T02:22:09;101374.64;;;6.06;84.06
84841;BME280;75088;53.114;18.040;2024-02-28T02:23:18;101376.75;;;6.06;84.32
84841;BME280;75088;53.114;18.040;2024-02-28T02:24:25;101374.85;;;6.07;84.23
84841;BME280;75088;53.114;18.040;2024-02-28T02:25:32;101375.20;;;6.08;84.27
84841;BME280;75088;53.114;18.040;2024-02-28T02:26:39;101377.51;;;6.08;84.31
84841;BME280;75088;53.114;18.040;2024-02-28T02:27:49;101377.52;;;6.09;84.62
84841;BME280;75088;53.114;18.040;2024-02-28T02:28:56;101375.94;;;6.09;84.16
84841;BME280;75088;53.114;18.040;2024-02-28T02:30:05;101373.30;;;6.10;84.23
84841;BME280;75088;53.114;18.040;2024-02-28T02:31:13;101372.23;;;6.10;84.14
84841;BME280;75088;53.114;18.040;2024-02-28T02:32:20;101370.98;;;6.08;84.05
84841;BME280;75088;53.114;18.040;2024-02-28T02:33:27;101374.18;;;6.10;84.16
84841;BME280;75088;53.114;18.040;2024-02-28T02:34:35;101371.86;;;6.09;84.23
84841;BME280;75088;53.114;18.040;2024-02-28T02:35:43;101369.55;;;6.07;84.19
84841;BME280;75088;53.114;18.040;2024-02-28T02:36:50;101368.85;;;6.07;83.99
84841;BME280;75088;53.114;18.040;2024-02-28T02:37:58;101369.73;;;6.07;84.03
84841;BME280;75088;53.114;18.040;2024-02-28T02:39:05;101368.86;;;6.08;84.12
84841;BME280;75088;53.114;18.040;2024-02-28T02:40:14;101371.33;;;6.08;84.21
84841;BME280;75088;53.114;18.040;2024-02-28T02:41:21;101368.52;;;6.08;84.31
84841;BME280;75088;53.114;18.040;2024-02-28T02:42:28;101368.69;;;6.08;84.12
84841;BME280;75088;53.114;18.040;2024-02-28T02:43:36;101366.55;;;6.07;84.15
84841;BME280;75088;53.114;18.040;2024-02-28T02:44:43;101363.89;;;6.06;84.22
84841;BME280;75088;53.114;18.040;2024-02-28T02:45:50;101365.66;;;6.07;84.22
84841;BME280;75088;53.114;18.040;2024-02-28T02:46:57;101366.75;;;6.08;84.11
84841;BME280;75088;53.114;18.040;2024-02-28T02:48:06;101368.33;;;6.08;84.07
84841;BME280;75088;53.114;18.040;2024-02-28T02:49:13;101364.61;;;6.08;84.34
84841;BME280;75088;53.114;18.040;2024-02-28T02:50:20;101367.27;;;6.07;84.34
84841;BME280;75088;53.114;18.040;2024-02-28T02:51:27;101364.42;;;6.07;84.14
84841;BME280;75088;53.114;18.040;2024-02-28T02:52:34;101364.44;;;6.07;84.55
84841;BME280;75088;53.114;18.040;2024-02-28T02:53:41;101357.73;;;6.07;84.45
84841;BME280;75088;53.114;18.040;2024-02-28T02:54:48;101356.31;;;6.07;84.35
84841;BME280;75088;53.114;18.040;2024-02-28T02:55:56;101354.18;;;6.06;84.16
84841;BME280;75088;53.114;18.040;2024-02-28T02:57:03;101350.98;;;6.05;84.25
84841;BME280;75088;53.114;18.040;2024-02-28T02:58:10;101350.08;;;6.04;84.34
84841;BME280;75088;53.114;18.040;2024-02-28T02:59:17;101348.66;;;6.04;84.36
84841;BME280;75088;53.114;18.040;2024-02-28T03:00:27;101349.54;;;6.03;84.07
84841;BME280;75088;53.114;18.040;2024-02-28T03:01:34;101349.70;;;6.03;84.16
84841;BME280;75088;53.114;18.040;2024-02-28T03:02:41;101347.59;;;6.02;84.32
84841;BME280;75088;53.114;18.040;2024-02-28T03:03:48;101351.45;;;6.01;84.45
84841;BME280;75088;53.114;18.040;2024-02-28T03:04:55;101351.64;;;6.01;84.55
84841;BME280;75088;53.114;18.040;2024-02-28T03:06:03;101351.81;;;6.02;84.43
84841;BME280;75088;53.114;18.040;2024-02-28T03:07:10;101351.81;;;6.01;84.28
84841;BME280;75088;53.114;18.040;2024-02-28T03:08:17;101352.15;;;6.00;84.01
84841;BME280;75088;53.114;18.040;2024-02-28T03:09:24;101355.16;;;6.01;84.38
84841;BME280;75088;53.114;18.040;2024-02-28T03:10:31;101350.58;;;6.01;84.15
84841;BME280;75088;53.114;18.040;2024-02-28T03:11:38;101354.64;;;6.02;84.37
84841;BME280;75088;53.114;18.040;2024-02-28T03:12:45;101353.39;;;6.02;84.36
84841;BME280;75088;53.114;18.040;2024-02-28T03:13:52;101354.98;;;6.02;84.42
84841;BME280;75088;53.114;18.040;2024-02-28T03:15:00;101358.69;;;6.02;84.52
84841;BME280;75088;53.114;18.040;2024-02-28T03:16:09;101359.23;;;6.01;84.60
84841;BME280;75088;53.114;18.040;2024-02-28T03:17:17;101360.64;;;6.02;84.50
84841;BME280;75088;53.114;18.040;2024-02-28T03:18:24;101360.28;;;6.02;84.69
84841;BME280;75088;53.114;18.040;2024-02-28T03:19:31;101359.75;;;6.02;84.43
84841;BME280;75088;53.114;18.040;2024-02-28T03:20:39;101360.28;;;6.02;84.47
84841;BME280;75088;53.114;18.040;2024-02-28T03:21:46;101358.50;;;6.01;84.39
84841;BME280;75088;53.114;18.040;2024-02-28T03:22:55;101360.44;;;5.99;84.34
84841;BME280;75088;53.114;18.040;2024-02-28T03:24:02;101359.35;;;5.98;84.41
84841;BME280;75088;53.114;18.040;2024-02-28T03:25:10;101354.95;;;5.98;84.56
84841;BME280;75088;53.114;18.040;2024-02-28T03:26:18;101355.46;;;5.98;84.41
84841;BME280;75088;53.114;18.040;2024-02-28T03:27:25;101356.00;;;5.98;84.65
84841;BME280;75088;53.114;18.040;2024-02-28T03:28:32;101352.10;;;5.97;84.62
84841;BME280;75088;53.114;18.040;2024-02-28T03:29:39;101352.45;;;5.97;84.43
84841;BME280;75088;53.114;18.040;2024-02-28T03:30:46;101352.63;;;5.97;84.42
84841;BME280;75088;53.114;18.040;2024-02-28T03:31:53;101352.98;;;5.97;84.72
84841;BME280;75088;53.114;18.040;2024-02-28T03:33:00;101354.72;;;5.96;84.60
84841;BME280;75088;53.114;18.040;2024-02-28T03:34:07;101359.48;;;5.96;84.57
84841;BME280;75088;53.114;18.040;2024-02-28T03:35:14;101358.25;;;5.96;84.57
84841;BME280;75088;53.114;18.040;2024-02-28T03:36:21;101360.70;;;5.96;84.91
84841;BME280;75088;53.114;18.040;2024-02-28T03:37:29;101360.17;;;5.95;84.54
84841;BME280;75088;53.114;18.040;2024-02-28T03:38:36;101358.73;;;5.94;84.73
84841;BME280;75088;53.114;18.040;2024-02-28T03:39:43;101358.56;;;5.94;84.40
84841;BME280;75088;53.114;18.040;2024-02-28T03:40:50;101357.84;;;5.93;84.60
84841;BME280;75088;53.114;18.040;2024-02-28T03:41:57;101359.63;;;5.94;84.75
84841;BME280;75088;53.114;18.040;2024-02-28T03:43:05;101358.89;;;5.93;84.70
84841;BME280;75088;53.114;18.040;2024-02-28T03:44:12;101361.38;;;5.94;84.55
84841;BME280;75088;53.114;18.040;2024-02-28T03:45:19;101361.89;;;5.93;84.45
84841;BME280;75088;53.114;18.040;2024-02-28T03:46:26;101357.99;;;5.92;84.51
84841;BME280;75088;53.114;18.040;2024-02-28T03:47:33;101356.05;;;5.92;84.43
84841;BME280;75088;53.114;18.040;2024-02-28T03:48:40;101355.00;;;5.92;84.70
84841;BME280;75088;53.114;18.040;2024-02-28T03:49:47;101354.66;;;5.92;84.66
84841;BME280;75088;53.114;18.040;2024-02-28T03:50:54;101355.17;;;5.92;84.47
84841;BME280;75088;53.114;18.040;2024-02-28T03:52:01;101356.55;;;5.91;84.57
84841;BME280;75088;53.114;18.040;2024-02-28T03:53:10;101358.81;;;5.89;84.47
84841;BME280;75088;53.114;18.040;2024-02-28T03:54:17;101359.96;;;5.87;84.36
84841;BME280;75088;53.114;18.040;2024-02-28T03:55:30;101358.72;;;5.86;84.82
84841;BME280;75088;53.114;18.040;2024-02-28T03:56:39;101360.30;;;5.86;84.57
84841;BME280;75088;53.114;18.040;2024-02-28T03:57:49;101360.45;;;5.84;84.41
84841;BME280;75088;53.114;18.040;2024-02-28T03:58:57;101356.70;;;5.82;84.59
84841;BME280;75088;53.114;18.040;2024-02-28T04:00:06;101360.22;;;5.81;84.58
84841;BME280;75088;53.114;18.040;2024-02-28T04:01:14;101362.33;;;5.81;84.60
84841;BME280;75088;53.114;18.040;2024-02-28T04:02:22;101366.05;;;5.82;84.72
84841;BME280;75088;53.114;18.040;2024-02-28T04:03:29;101364.30;;;5.83;84.72
84841;BME280;75088;53.114;18.040;2024-02-28T04:04:36;101365.73;;;5.83;84.85
84841;BME280;75088;53.114;18.040;2024-02-28T04:05:43;101365.19;;;5.83;84.53
84841;BME280;75088;53.114;18.040;2024-02-28T04:06:50;101366.78;;;5.83;84.61
84841;BME280;75088;53.114;18.040;2024-02-28T04:07:57;101364.52;;;5.85;84.90
84841;BME280;75088;53.114;18.040;2024-02-28T04:09:04;101364.54;;;5.86;84.89
84841;BME280;75088;53.114;18.040;2024-02-28T04:10:12;101363.13;;;5.86;84.78
84841;BME280;75088;53.114;18.040;2024-02-28T04:11:21;101363.50;;;5.87;84.81
84841;BME280;75088;53.114;18.040;2024-02-28T04:12:28;101368.45;;;5.87;84.83
84841;BME280;75088;53.114;18.040;2024-02-28T04:13:35;101363.67;;;5.87;84.84
84841;BME280;75088;53.114;18.040;2024-02-28T04:14:42;101363.88;;;5.88;84.61
84841;BME280;75088;53.114;18.040;2024-02-28T04:15:49;101365.44;;;5.86;84.62
84841;BME280;75088;53.114;18.040;2024-02-28T04:16:56;101364.18;;;5.86;84.60
84841;BME280;75088;53.114;18.040;2024-02-28T04:18:04;101361.88;;;5.85;84.65
84841;BME280;75088;53.114;18.040;2024-02-28T04:19:11;101364.86;;;5.84;84.53
84841;BME280;75088;53.114;18.040;2024-02-28T04:20:18;101366.09;;;5.84;84.83
84841;BME280;75088;53.114;18.040;2024-02-28T04:21:25;101363.96;;;5.84;84.70
84841;BME280;75088;53.114;18.040;2024-02-28T04:22:33;101363.26;;;5.83;84.54
84841;BME280;75088;53.114;18.040;2024-02-28T04:23:40;101364.10;;;5.82;84.76
84841;BME280;75088;53.114;18.040;2024-02-28T04:24:49;101362.85;;;5.81;84.57
84841;BME280;75088;53.114;18.040;2024-02-28T04:25:56;101363.02;;;5.81;84.68
84841;BME280;75088;53.114;18.040;2024-02-28T04:27:04;101363.20;;;5.81;84.80
84841;BME280;75088;53.114;18.040;2024-02-28T04:28:12;101364.25;;;5.80;84.54
84841;BME280;75088;53.114;18.040;2024-02-28T04:29:19;101363.90;;;5.80;84.91
84841;BME280;75088;53.114;18.040;2024-02-28T04:30:26;101364.77;;;5.79;84.74
84841;BME280;75088;53.114;18.040;2024-02-28T04:31:33;101370.41;;;5.79;84.77
84841;BME280;75088;53.114;18.040;2024-02-28T04:32:40;101366.73;;;5.80;84.52
84841;BME280;75088;53.114;18.040;2024-02-28T04:33:48;101367.23;;;5.79;84.80
84841;BME280;75088;53.114;18.040;2024-02-28T04:34:55;101369.34;;;5.79;84.89
84841;BME280;75088;53.114;18.040;2024-02-28T04:36:02;101370.22;;;5.79;84.71
84841;BME280;75088;53.114;18.040;2024-02-28T04:37:09;101371.64;;;5.79;84.63
84841;BME280;75088;53.114;18.040;2024-02-28T04:38:16;101370.95;;;5.79;84.83
84841;BME280;75088;53.114;18.040;2024-02-28T04:39:24;101372.87;;;5.79;84.72
84841;BME280;75088;53.114;18.040;2024-02-28T04:40:31;101374.07;;;5.77;84.58
84841;BME280;75088;53.114;18.040;2024-02-28T04:41:39;101373.70;;;5.76;84.79
84841;BME280;75088;53.114;18.040;2024-02-28T04:42:46;101377.04;;;5.75;84.66
84841;BME280;75088;53.114;18.040;2024-02-28T04:43:53;101372.97;;;5.74;84.92
84841;BME280;75088;53.114;18.040;2024-02-28T04:45:01;101372.27;;;5.74;84.64
84841;BME280;75088;53.114;18.040;2024-02-28T04:46:08;101372.42;;;5.73;84.70
84841;BME280;75088;53.114;18.040;2024-02-28T04:47:16;101375.27;;;5.74;84.79
84841;BME280;75088;53.114;18.040;2024-02-28T04:48:23;101372.79;;;5.74;84.75
84841;BME280;75088;53.114;18.040;2024-02-28T04:49:30;101371.91;;;5.74;84.88
84841;BME280;75088;53.114;18.040;2024-02-28T04:50:37;101374.73;;;5.75;84.70
84841;BME280;75088;53.114;18.040;2024-02-28T04:51:44;101377.05;;;5.76;85.00
84841;BME280;75088;53.114;18.040;2024-02-28T04:52:51;101371.94;;;5.76;84.67
84841;BME280;75088;53.114;18.040;2024-02-28T04:53:59;101374.23;;;5.76;84.75
84841;BME280;75088;53.114;18.040;2024-02-28T04:55:07;101371.20;;;5.75;84.70
84841;BME280;75088;53.114;18.040;2024-02-28T04:56:17;101374.38;;;5.75;84.81
84841;BME280;75088;53.114;18.040;2024-02-28T04:57:25;101373.67;;;5.75;84.79
84841;BME280;75088;53.114;18.040;2024-02-28T04:58:32;101372.79;;;5.75;84.81
84841;BME280;75088;53.114;18.040;2024-02-28T04:59:39;101370.66;;;5.74;84.88
84841;BME280;75088;53.114;18.040;2024-02-28T05:00:48;101373.85;;;5.74;84.60
84841;BME280;75088;53.114;18.040;2024-02-28T05:01:56;101377.55;;;5.74;84.64
84841;BME280;75088;53.114;18.040;2024-02-28T05:03:04;101376.32;;;5.74;84.64
84841;BME280;75088;53.114;18.040;2024-02-28T05:04:11;101378.25;;;5.73;84.73
84841;BME280;75088;53.114;18.040;2024-02-28T05:05:18;101378.05;;;5.72;84.80
84841;BME280;75088;53.114;18.040;2024-02-28T05:06:25;101379.77;;;5.69;84.68
84841;BME280;75088;53.114;18.040;2024-02-28T05:07:32;101379.05;;;5.69;84.77
84841;BME280;75088;53.114;18.040;2024-02-28T05:08:39;101381.16;;;5.69;84.89
84841;BME280;75088;53.114;18.040;2024-02-28T05:09:46;101377.30;;;5.69;84.71
84841;BME280;75088;53.114;18.040;2024-02-28T05:10:53;101376.98;;;5.71;84.72
84841;BME280;75088;53.114;18.040;2024-02-28T05:12:00;101374.34;;;5.71;84.84
84841;BME280;75088;53.114;18.040;2024-02-28T05:13:07;101376.11;;;5.72;84.78
84841;BME280;75088;53.114;18.040;2024-02-28T05:14:15;101374.18;;;5.72;84.80
84841;BME280;75088;53.114;18.040;2024-02-28T05:15:22;101375.22;;;5.71;84.70
84841;BME280;75088;53.114;18.040;2024-02-28T05:16:29;101376.13;;;5.73;84.84
84841;BME280;75088;53.114;18.040;2024-02-28T05:17:36;101376.14;;;5.73;84.85
84841;BME280;75088;53.114;18.040;2024-02-28T05:18:45;101378.61;;;5.74;84.84
84841;BME280;75088;53.114;18.040;2024-02-28T05:19:52;101381.61;;;5.73;84.81
84841;BME280;75088;53.114;18.040;2024-02-28T05:21:01;101381.78;;;5.74;84.62
84841;BME280;75088;53.114;18.040;2024-02-28T05:22:08;101383.19;;;5.73;84.78
84841;BME280;75088;53.114;18.040;2024-02-28T05:23:16;101387.04;;;5.72;84.83
84841;BME280;75088;53.114;18.040;2024-02-28T05:24:24;101387.89;;;5.70;84.65
84841;BME280;75088;53.114;18.040;2024-02-28T05:25:31;101386.83;;;5.69;84.90
84841;BME280;75088;53.114;18.040;2024-02-28T05:26:39;101383.98;;;5.69;84.59
84841;BME280;75088;53.114;18.040;2024-02-28T05:27:47;101386.63;;;5.69;84.72
84841;BME280;75088;53.114;18.040;2024-02-28T05:28:54;101384.52;;;5.70;84.78
84841;BME280;75088;53.114;18.040;2024-02-28T05:30:02;101387.00;;;5.70;84.88
84841;BME280;75088;53.114;18.040;2024-02-28T05:31:22;101387.20;;;5.71;85.13
84841;BME280;75088;53.114;18.040;2024-02-28T05:32:30;101385.08;;;5.71;84.87
84841;BME280;75088;53.114;18.040;2024-02-28T05:33:37;101386.67;;;5.71;84.83
84841;BME280;75088;53.114;18.040;2024-02-28T05:34:45;101385.09;;;5.71;84.89
84841;BME280;75088;53.114;18.040;2024-02-28T05:35:53;101383.67;;;5.71;85.00
84841;BME280;75088;53.114;18.040;2024-02-28T05:37:00;101385.25;;;5.70;84.93
84841;BME280;75088;53.114;18.040;2024-02-28T05:38:07;101384.71;;;5.70;84.88
84841;BME280;75088;53.114;18.040;2024-02-28T05:39:14;101391.23;;;5.70;84.97
84841;BME280;75088;53.114;18.040;2024-02-28T05:40:21;101392.81;;;5.70;84.84
84841;BME280;75088;53.114;18.040;2024-02-28T05:41:29;101395.29;;;5.70;84.88
84841;BME280;75088;53.114;18.040;2024-02-28T05:42:36;101395.28;;;5.70;84.91
84841;BME280;75088;53.114;18.040;2024-02-28T05:43:43;101397.05;;;5.70;84.81
84841;BME280;75088;53.114;18.040;2024-02-28T05:44:50;101399.33;;;5.69;84.85
84841;BME280;75088;53.114;18.040;2024-02-28T05:45:58;101397.38;;;5.69;84.96
84841;BME280;75088;53.114;18.040;2024-02-28T05:47:06;101397.73;;;5.68;85.01
84841;BME280;75088;53.114;18.040;2024-02-28T05:48:13;101398.27;;;5.69;84.86
84841;BME280;75088;53.114;18.040;2024-02-28T05:49:20;101400.73;;;5.69;84.74
84841;BME280;75088;53.114;18.040;2024-02-28T05:50:28;101402.33;;;5.69;84.73
84841;BME280;75088;53.114;18.040;2024-02-28T05:51:38;101402.66;;;5.69;84.92
84841;BME280;75088;53.114;18.040;2024-02-28T05:52:46;101402.14;;;5.69;85.16
84841;BME280;75088;53.114;18.040;2024-02-28T05:53:53;101404.42;;;5.68;84.77